AirNav   Get $300 off a Bose A20
 
 353 users online  

97MT Cabin Creek Landing Airport
Marion, Montana, USA

GOING TO MARION?


FAA INFORMATION EFFECTIVE 25 APRIL 2019

Location

FAA Identifier: 97MT
Lat/Long: 48-04-26.1800N / 114-40-40.2400W
48-04.436333N / 114-40.670667W
48.0739389 / -114.6778444
(estimated)
Elevation: 3999 ft. / 1219 m (estimated)
From city: 2 miles SW of MARION, MT
Time zone: UTC -6 (UTC -7 during Standard Time)
Zip code: 59925

Airport Operations

Airport use: Private use. Permission required prior to landing
Activation date: 07/2004
Control tower: no
ARTCC: SALT LAKE CITY CENTER
FSS: GREAT FALLS FLIGHT SERVICE STATION
Attendance: UNATNDD
Wind indicator: yes
Segmented circle: no
Lights: ACTIVATE LIRL RY 02/20 - 122.9.

Nearby radio navigation aids

VOR radial/distance  VOR name  Freq  Var
FCAr229/21.8KALISPELL VOR/DME113.2018E

 
NDB name  Hdg/Dist  Freq  Var  ID
SMITH LAKE242/8.951515ESAK ... .- -.-
LIBBY096/35.641417ELYI .-.. -.-- ..

Airport Services

Fuel available: 100LL
FUEL AVBL 24 HRS W/ CREDIT CARD.

Runway Information

Runway 2/20

Dimensions: 3400 x 50 ft. / 1036 x 15 m
Surface: asphalt
Runway edge lights: low intensity
RUNWAY 2  RUNWAY 20
Traffic pattern: leftleft
Markings: numbers onlynumbers only
Obstructions: treestrees

Airport Ownership and Management from official FAA records

Ownership: Privately-owned
Owner: CABIN CREEK LANDING LLC
2820 HELENA FLATS RD
KALISPELL, MT 59901
Phone 406-854-2074
Manager: RUSSELL OLSEN
2820 HELENA FLATS RD
KALISPELL, MT 59901
Phone 406-752-0051

Airport Operational Statistics

Aircraft based on the field: 8
Single engine airplanes: 8
    

Additional Remarks

MECHANIC ON FIELD.

Instrument Procedures

There are no published instrument procedures at 97MT.

Some nearby airports with instrument procedures:

KGPI - Glacier Park International Airport (22 nm NE)
8S1 - Polson Airport (30 nm SE)
S59 - Libby Airport (35 nm W)
7S0 - Ronan Airport (38 nm SE)
KMSO - Missoula International Airport (73 nm S)
 
Loc | Ops | Rwys | IFR | FBO | Links
Com | Nav | Svcs | Stats | Notes
Area around 97MT (Cabin Creek Landing Airport)
 
Road maps at: MapQuest Bing Google
 
Aerial photo
WARNING: Photo may not be current or correct
Aerial photo of 97MT (Cabin Creek Landing Airport)
Taken in May 2009

Do you have a better or more recent aerial photo of Cabin Creek Landing Airport that you would like to share? If so, please send us your photo.

 
Sectional chart

 
Airport distance calculator
Flying to Cabin Creek Landing Airport? Find the distance to fly.

From to 97MT

Sunrise and sunset
Times for 26-Apr-2019
 Local
(UTC-6)
 Zulu
(UTC)
Morning civil twilight05:5611:56
Sunrise06:3012:30
Sunset20:4302:43
Evening civil twilight21:1803:18

Current date and time
Zulu (UTC)  26-Apr-2019 08:33:43
Local (UTC-6)  26-Apr-2019 02:33:43
 
METAR
KGPI 
22nm NE 
260755Z AUTO 28003KT 10SM CLR 06/00 A2993 RMK AO2 SLP137 T00560000 TSNO
S34 
37nm S 
SuperAWOS
260755Z AUTO 00000KT 4SM HZ 06/01 A2995
KTHM 
39nm SW 
SuperAWOS
260655Z AUTO 00000KT 10SM 07/01 A3001
TAF
KGPI 
22nm NE 
260527Z 2606/2706 00000KT P6SM SKC FM261100 36005KT P6SM BKN050 FM261900 12010KT 4SM -RA BKN030 OVC040 FM270100 19012KT P6SM VCSH BKN030 BKN050
NOTAMs
Click for the latest NOTAMs
NOTAMs are issued by the DoD/FAA and will open in a separate window not controlled by AirNav.

 

 
 

FBO, Fuel Providers, and Aircraft Ground Support

  
 Business Name 
 
 Contact 
 
 Services / Description 
 
Fuel Prices
 
Comments
  
Cabin Creek Landing 406-261-9105
no information available

If you are affiliated with Cabin Creek Landing and would like to show here your services, contact info, web link, logo, and more, click here
100LL
SS $5.05 
 Updated 03-Aug-2018
 
   write
SS=Self service
Update Fuel Prices
 

Would you like to see your business listed on this page?

 If your business provides an interesting product or service to pilots, flight crews, aircraft, or users of the Cabin Creek Landing Airport, you should consider listing it here.  To start the listing process, click on the button below
 
Add a business
 

Other Pages about Cabin Creek Landing Airport

Update a link
 
Copyright © AirNav, LLC. All rights reserved. Privacy Policy  Contact